Time;durP1;ratioP1;P1;durP2;ratioP2;P2;SDS_P1;SDS_P2;PMS_P1;PMS_P2;Temp;Humidity;BMP_temperature;BMP_pressure;BME280_temperature;BME280_humidity;BME280_pressure;Samples;Min_cycle;Max_cycle;Signal;HPM_P1;HPM_P2
2022/05/07 00:01:12;;;;;;;3.40;2.77;;;14.60;65.90;;;;;;4987339;28;20898;-47
2022/05/07 00:03:39;;;;;;;3.87;3.57;;;14.60;65.70;;;;;;4986013;28;20473;-47
2022/05/07 00:06:05;;;;;;;4.03;2.50;;;14.60;65.60;;;;;;4986549;28;20468;-47
2022/05/07 00:08:32;;;;;;;3.00;2.23;;;14.70;65.70;;;;;;4984164;28;20472;-47
2022/05/07 00:10:59;;;;;;;3.37;3.00;;;14.60;65.70;;;;;;4986147;28;20468;-47
2022/05/07 00:13:26;;;;;;;4.37;2.67;;;14.60;65.50;;;;;;4983621;28;20461;-47
2022/05/07 00:18:38;;;;;;;4.90;3.13;;;14.50;65.60;;;;;;4987749;28;20468;-47
2022/05/07 00:21:05;;;;;;;3.90;3.37;;;14.50;65.40;;;;;;4985341;28;20988;-47
2022/05/07 00:23:32;;;;;;;3.37;3.07;;;14.50;65.60;;;;;;4986713;28;20457;-47
2022/05/07 00:25:59;;;;;;;4.83;3.33;;;14.50;66.20;;;;;;4986222;28;20800;-47
2022/05/07 00:28:26;;;;;;;6.13;3.73;;;14.40;66.50;;;;;;4987803;28;20470;-47
2022/05/07 00:30:53;;;;;;;4.17;3.77;;;14.40;66.50;;;;;;4984833;28;21072;-47
2022/05/07 00:33:20;;;;;;;2.70;2.50;;;14.30;66.10;;;;;;4971127;28;20461;-46
2022/05/07 00:35:46;;;;;;;5.73;2.90;;;14.30;66.70;;;;;;4987329;28;21018;-47
2022/05/07 00:38:13;;;;;;;3.97;3.30;;;14.30;66.60;;;;;;4986463;28;20577;-47
2022/05/07 00:40:40;;;;;;;3.00;2.27;;;14.30;66.60;;;;;;4985499;28;20857;-47
2022/05/07 00:43:06;;;;;;;5.70;2.80;;;14.30;66.40;;;;;;4991190;28;20841;-47
2022/05/07 00:45:33;;;;;;;4.40;3.23;;;14.20;66.50;;;;;;4987611;28;20469;-47
2022/05/07 00:48:00;;;;;;;2.23;1.97;;;14.20;66.40;;;;;;4984454;28;20499;-47
2022/05/07 00:53:13;;;;;;;2.53;2.33;;;14.10;66.50;;;;;;4988994;28;20539;-47
2022/05/07 00:55:41;;;;;;;3.80;2.20;;;14.00;66.90;;;;;;4988308;28;20465;-47
2022/05/07 00:58:08;;;;;;;3.43;2.23;;;14.00;67.20;;;;;;4987298;28;21012;-47
2022/05/07 01:00:35;;;;;;;2.87;2.63;;;14.00;67.30;;;;;;4990952;28;20936;-47
2022/05/07 01:03:04;;;;;;;3.03;2.30;;;13.90;67.30;;;;;;4985903;28;20500;-47
2022/05/07 01:05:31;;;;;;;3.50;2.90;;;13.90;67.20;;;;;;4987343;28;21037;-47
2022/05/07 01:08:00;;;;;;;4.80;2.60;;;13.90;67.40;;;;;;4987899;28;20880;-47
2022/05/07 01:10:27;;;;;;;2.90;2.50;;;13.90;67.30;;;;;;4986068;28;20469;-47
2022/05/07 01:12:55;;;;;;;3.40;2.97;;;13.80;67.40;;;;;;4986347;28;20471;-46
2022/05/07 01:15:22;;;;;;;4.50;2.93;;;13.80;67.60;;;;;;4985302;28;20468;-47
2022/05/07 01:17:48;;;;;;;3.67;2.40;;;13.80;67.70;;;;;;4966277;28;20494;-47
2022/05/07 01:20:15;;;;;;;3.33;2.80;;;13.70;67.30;;;;;;4988163;28;21155;-47
2022/05/07 01:22:44;;;;;;;2.50;2.30;;;13.70;67.40;;;;;;4971229;28;20978;-47
2022/05/07 01:25:11;;;;;;;3.70;2.40;;;13.60;67.60;;;;;;4984995;28;20497;-47
2022/05/07 01:27:38;;;;;;;3.93;2.67;;;13.60;67.50;;;;;;4982584;28;20473;-47
2022/05/07 01:30:05;;;;;;;4.27;2.63;;;13.60;67.70;;;;;;4981509;28;20558;-47
2022/05/07 01:32:32;;;;;;;3.30;2.83;;;13.50;67.60;;;;;;4981892;28;20532;-47
2022/05/07 01:34:58;;;;;;;2.83;2.60;;;13.40;67.70;;;;;;4969962;28;20511;-47
2022/05/07 01:37:25;;;;;;;5.40;2.60;;;13.40;68.20;;;;;;4969132;28;20485;-47
2022/05/07 01:39:52;;;;;;;3.00;2.57;;;13.40;68.30;;;;;;4984483;28;20944;-47
2022/05/07 01:42:19;;;;;;;4.63;2.83;;;13.30;68.50;;;;;;4979601;28;20510;-47
2022/05/07 01:44:46;;;;;;;4.60;3.37;;;13.20;68.50;;;;;;4986811;28;20472;-47
2022/05/07 01:49:58;;;;;;;3.30;2.93;;;13.20;68.90;;;;;;4978713;28;20559;-47
2022/05/07 01:52:25;;;;;;;4.20;3.10;;;13.20;68.90;;;;;;4985792;28;20468;-47
2022/05/07 01:54:52;;;;;;;3.80;3.03;;;13.10;69.20;;;;;;4986643;28;20498;-47
2022/05/07 01:57:19;;;;;;;2.63;2.43;;;13.10;69.30;;;;;;4985583;28;20502;-47
2022/05/07 01:59:45;;;;;;;4.00;3.10;;;13.10;69.30;;;;;;4989294;28;20461;-47
2022/05/07 02:02:12;;;;;;;3.13;2.90;;;13.10;69.40;;;;;;4986721;28;20469;-47
2022/05/07 02:04:39;;;;;;;4.07;3.40;;;13.10;69.20;;;;;;4971733;28;20990;-45
2022/05/07 02:07:07;;;;;;;6.30;3.43;;;13.00;69.50;;;;;;4979625;28;20507;-45
2022/05/07 02:09:35;;;;;;;3.03;2.80;;;13.00;69.40;;;;;;4983615;28;20474;-44
2022/05/07 02:12:03;;;;;;;4.60;3.20;;;13.00;69.50;;;;;;4975944;28;20820;-44
2022/05/07 02:14:32;;;;;;;4.03;3.63;;;13.00;69.50;;;;;;4971659;28;20468;-45
2022/05/07 02:16:59;;;;;;;5.43;3.30;;;12.90;69.40;;;;;;4981617;28;21047;-45
2022/05/07 02:19:29;;;;;;;4.07;2.60;;;12.90;69.60;;;;;;4981533;28;20472;-45
2022/05/07 02:21:56;;;;;;;3.70;3.13;;;12.80;69.50;;;;;;4961484;28;20481;-45
2022/05/07 02:24:23;;;;;;;8.37;3.40;;;12.80;69.40;;;;;;4962372;28;20464;-44
2022/05/07 02:26:49;;;;;;;3.20;2.90;;;12.80;69.30;;;;;;4965662;28;20468;-44
2022/05/07 02:29:16;;;;;;;5.70;3.33;;;12.70;69.20;;;;;;4980608;28;20468;-45
2022/05/07 02:32:03;;;;;;;3.10;2.50;;;12.70;69.60;;;;;;4977596;28;20492;-44
2022/05/07 02:34:34;;;;;;;3.77;3.47;;;12.60;69.80;;;;;;4977379;28;20565;-44
2022/05/07 02:37:01;;;;;;;3.10;2.90;;;12.60;70.10;;;;;;4979852;28;20503;-45
2022/05/07 02:39:28;;;;;;;3.80;3.40;;;12.50;70.20;;;;;;4980731;28;20504;-44
2022/05/07 02:44:40;;;;;;;3.73;3.37;;;12.50;70.50;;;;;;4978944;28;20558;-44
2022/05/07 02:47:07;;;;;;;4.20;3.50;;;12.50;70.40;;;;;;4980010;28;20480;-44
2022/05/07 02:49:34;;;;;;;4.80;4.13;;;12.40;70.60;;;;;;4974428;28;20961;-44
2022/05/07 02:52:01;;;;;;;3.60;3.30;;;12.40;70.80;;;;;;4976497;28;20465;-44
2022/05/07 02:54:27;;;;;;;3.97;3.67;;;12.40;71.00;;;;;;4981391;28;20827;-44
2022/05/07 02:56:55;;;;;;;4.60;3.63;;;12.40;71.20;;;;;;4983689;28;20473;-45
2022/05/07 02:59:22;;;;;;;4.60;3.70;;;12.40;71.20;;;;;;4985740;28;20821;-44
2022/05/07 03:01:49;;;;;;;5.33;3.40;;;12.40;71.30;;;;;;4983882;28;21038;-44
2022/05/07 03:04:16;;;;;;;9.20;4.10;;;12.40;71.40;;;;;;4985125;28;20464;-44
2022/05/07 03:06:42;;;;;;;5.10;3.73;;;12.40;71.40;;;;;;4984796;28;20464;-45
2022/05/07 03:09:09;;;;;;;3.70;3.30;;;12.40;71.40;;;;;;4987342;28;20477;-44
2022/05/07 03:11:36;;;;;;;5.50;3.83;;;12.40;71.50;;;;;;4961267;28;20464;-44
2022/05/07 03:14:03;;;;;;;4.53;3.57;;;12.40;71.60;;;;;;4967441;28;20464;-44
2022/05/07 03:16:31;;;;;;;5.20;4.10;;;12.40;71.70;;;;;;4982740;28;20481;-44
2022/05/07 03:18:58;;;;;;;3.73;3.43;;;12.30;71.70;;;;;;4983640;28;20575;-45
2022/05/07 03:21:24;;;;;;;4.70;3.47;;;12.30;71.60;;;;;;4963401;28;20463;-44
2022/05/07 03:23:51;;;;;;;4.80;3.80;;;12.30;71.60;;;;;;4965500;28;20496;-44
2022/05/07 03:26:21;;;;;;;5.73;4.17;;;12.30;71.70;;;;;;4983232;28;20464;-44
2022/05/07 03:28:48;;;;;;;6.17;4.27;;;12.30;71.70;;;;;;4963678;28;20511;-44
2022/05/07 03:31:15;;;;;;;4.40;4.00;;;12.20;71.70;;;;;;4968558;28;20940;-44
2022/05/07 03:33:42;;;;;;;4.00;3.57;;;12.30;71.90;;;;;;4978254;28;20820;-44
2022/05/07 03:36:09;;;;;;;6.20;4.40;;;12.30;72.00;;;;;;4965219;28;20460;-45
2022/05/07 03:38:36;;;;;;;5.20;3.70;;;12.20;72.00;;;;;;4979902;28;20509;-44
2022/05/07 03:41:03;;;;;;;4.00;3.20;;;12.20;72.10;;;;;;4980531;28;21074;-45
2022/05/07 03:43:30;;;;;;;3.40;3.10;;;12.20;72.20;;;;;;4980536;28;20470;-43
2022/05/07 03:45:58;;;;;;;4.57;3.50;;;12.10;72.20;;;;;;4977640;28;21031;-44
2022/05/07 03:48:26;;;;;;;3.50;3.20;;;12.10;72.30;;;;;;4984059;28;20838;-44
2022/05/07 03:50:53;;;;;;;4.70;3.60;;;12.10;72.30;;;;;;4981979;28;20901;-44
2022/05/07 03:53:29;;;;;;;4.27;3.77;;;12.10;72.40;;;;;;4981466;28;20559;-44
2022/05/07 03:56:07;;;;;;;5.07;3.30;;;12.10;72.50;;;;;;4980870;28;20459;-45
2022/05/07 03:58:34;;;;;;;4.30;3.90;;;12.10;72.30;;;;;;4978023;28;20891;-44
2022/05/07 04:01:08;;;;;;;4.43;3.60;;;12.10;72.30;;;;;;4980470;28;20473;-44
2022/05/07 04:03:36;;;;;;;4.30;3.83;;;12.10;72.10;;;;;;4956914;28;20468;-45
2022/05/07 04:06:02;;;;;;;4.97;3.97;;;12.10;72.10;;;;;;4974596;28;20466;-45
2022/05/07 04:08:29;;;;;;;4.63;4.23;;;12.10;72.30;;;;;;4980260;28;20480;-45
2022/05/07 04:10:56;;;;;;;5.40;4.00;;;12.10;72.30;;;;;;4983151;28;20581;-44
2022/05/07 04:13:23;;;;;;;6.37;4.90;;;12.10;71.90;;;;;;4980720;28;20495;-44
2022/05/07 04:15:50;;;;;;;5.60;3.97;;;12.10;71.90;;;;;;4978636;28;20475;-44
2022/05/07 04:18:16;;;;;;;4.97;3.63;;;12.10;72.00;;;;;;4981752;28;20506;-45
2022/05/07 04:20:43;;;;;;;4.70;4.30;;;12.10;71.50;;;;;;4978542;28;20472;-44
2022/05/07 04:23:11;;;;;;;6.20;4.40;;;12.10;71.00;;;;;;4983586;28;20467;-45
2022/05/07 04:25:38;;;;;;;4.40;3.87;;;12.00;71.10;;;;;;4981608;28;20471;-44
2022/05/07 04:28:05;;;;;;;4.67;4.20;;;12.00;71.50;;;;;;4979197;28;20473;-44
2022/05/07 04:30:32;;;;;;;4.37;4.00;;;12.00;71.60;;;;;;4980910;28;20960;-45
2022/05/07 04:32:59;;;;;;;6.40;4.20;;;12.00;72.00;;;;;;4983210;28;20466;-44
2022/05/07 04:35:26;;;;;;;4.90;4.40;;;12.00;72.00;;;;;;4970769;28;20477;-44
2022/05/07 04:37:53;;;;;;;4.60;4.23;;;11.90;72.20;;;;;;4982456;28;20492;-45
2022/05/07 04:40:19;;;;;;;6.53;4.87;;;12.00;72.60;;;;;;4981045;28;20468;-45
2022/05/07 04:42:46;;;;;;;5.07;4.60;;;12.00;72.50;;;;;;4982527;28;20867;-45
2022/05/07 04:45:13;;;;;;;5.40;4.37;;;12.00;72.70;;;;;;4980508;28;20459;-45
2022/05/07 04:47:41;;;;;;;5.30;4.83;;;12.00;72.80;;;;;;4984069;28;20476;-45
2022/05/07 04:50:08;;;;;;;4.53;4.13;;;12.00;72.80;;;;;;4981650;28;20498;-45
2022/05/07 04:52:34;;;;;;;5.00;4.60;;;12.00;72.90;;;;;;4981511;28;20476;-45
2022/05/07 04:55:02;;;;;;;5.30;4.80;;;12.00;73.00;;;;;;4981379;28;20474;-45
2022/05/07 04:57:29;;;;;;;4.77;4.30;;;12.00;73.20;;;;;;4980632;28;20500;-45
2022/05/07 04:59:56;;;;;;;6.47;4.80;;;12.10;73.20;;;;;;4982090;28;21186;-45
2022/05/07 05:02:25;;;;;;;5.37;4.97;;;12.10;73.10;;;;;;4982417;28;20522;-45
2022/05/07 05:04:52;;;;;;;6.23;5.63;;;12.10;73.20;;;;;;4978558;28;20879;-45
2022/05/07 05:07:18;;;;;;;6.93;6.23;;;12.20;73.20;;;;;;4982168;28;20494;-45
2022/05/07 05:09:45;;;;;;;7.30;6.50;;;12.20;73.20;;;;;;4979487;28;20487;-45
2022/05/07 05:12:12;;;;;;;6.80;5.93;;;12.20;73.20;;;;;;4980206;28;20834;-45
2022/05/07 05:17:24;;;;;;;11.53;7.70;;;12.40;73.30;;;;;;4980733;28;20992;-45
2022/05/07 05:19:51;;;;;;;10.60;8.97;;;12.40;73.40;;;;;;4981420;28;20988;-45
2022/05/07 05:22:18;;;;;;;9.47;8.53;;;12.50;73.30;;;;;;4980391;28;20462;-45
2022/05/07 05:24:45;;;;;;;9.30;8.33;;;12.50;73.40;;;;;;4980702;28;20513;-44
2022/05/07 05:27:12;;;;;;;8.57;7.77;;;12.60;73.80;;;;;;4962611;28;20462;-44
2022/05/07 05:29:38;;;;;;;8.47;7.27;;;12.60;73.70;;;;;;4980853;28;20472;-44
2022/05/07 05:32:06;;;;;;;8.20;7.10;;;12.70;73.70;;;;;;4981372;28;20492;-45
2022/05/07 05:34:33;;;;;;;9.03;7.70;;;12.80;73.20;;;;;;4964673;28;20474;-44
2022/05/07 05:37:00;;;;;;;8.30;7.50;;;12.80;73.10;;;;;;4981271;28;20514;-44
2022/05/07 05:39:27;;;;;;;8.47;7.70;;;12.90;73.10;;;;;;4967035;28;20504;-44
2022/05/07 05:41:53;;;;;;;9.77;7.87;;;12.90;73.10;;;;;;4981373;28;20463;-44
2022/05/07 05:44:20;;;;;;;9.80;8.87;;;13.00;73.20;;;;;;4984146;28;20971;-44
2022/05/07 05:46:47;;;;;;;10.87;9.87;;;13.10;73.20;;;;;;4980222;28;20465;-44
2022/05/07 05:49:13;;;;;;;14.03;10.93;;;13.10;73.00;;;;;;4980940;28;20863;-44
2022/05/07 05:51:40;;;;;;;13.17;10.47;;;13.20;72.80;;;;;;4979954;28;20480;-44
2022/05/07 05:54:07;;;;;;;11.53;10.23;;;13.30;73.10;;;;;;4964632;28;20820;-45
2022/05/07 05:56:34;;;;;;;11.30;10.20;;;13.40;72.80;;;;;;4962720;28;20470;-45
2022/05/07 05:59:00;;;;;;;12.53;11.30;;;13.50;72.30;;;;;;4979200;28;20501;-45
2022/05/07 06:01:27;;;;;;;11.27;10.03;;;13.50;72.30;;;;;;4980300;28;20484;-44
2022/05/07 06:03:54;;;;;;;12.53;11.33;;;13.50;72.90;;;;;;4979170;28;20469;-44
2022/05/07 06:06:20;;;;;;;13.73;11.90;;;13.60;73.20;;;;;;4980840;28;20468;-44
2022/05/07 06:08:47;;;;;;;12.07;10.83;;;13.60;72.90;;;;;;4979714;28;20483;-44
2022/05/07 06:11:14;;;;;;;12.60;11.43;;;13.60;72.50;;;;;;4981150;28;20468;-45
2022/05/07 06:13:43;;;;;;;12.60;11.27;;;13.80;72.70;;;;;;4978265;28;20477;-44
2022/05/07 06:16:09;;;;;;;13.00;10.63;;;13.80;72.80;;;;;;4966538;28;20478;-44
2022/05/07 06:18:36;;;;;;;10.97;9.63;;;13.80;72.80;;;;;;4980586;28;20501;-44
2022/05/07 06:21:03;;;;;;;12.10;11.00;;;13.90;72.20;;;;;;4960039;28;20465;-44
2022/05/07 06:23:30;;;;;;;11.10;9.50;;;14.10;71.60;;;;;;4981266;28;20503;-45
2022/05/07 06:28:42;;;;;;;10.17;9.17;;;14.30;71.60;;;;;;4982177;28;20471;-45
2022/05/07 06:31:10;;;;;;;9.83;8.93;;;14.40;71.40;;;;;;4982776;28;20485;-45
2022/05/07 06:33:40;;;;;;;10.23;8.40;;;14.50;71.50;;;;;;4981560;28;20505;-45
2022/05/07 06:36:07;;;;;;;9.63;8.73;;;14.70;70.30;;;;;;4985366;28;20554;-45
2022/05/07 06:38:34;;;;;;;9.17;7.50;;;14.90;68.40;;;;;;4983139;28;20499;-45
2022/05/07 06:41:03;;;;;;;8.23;7.43;;;15.10;67.80;;;;;;4983679;28;21784;-45
2022/05/07 06:43:31;;;;;;;9.93;7.07;;;15.10;67.70;;;;;;4963987;28;20464;-45
2022/05/07 06:45:58;;;;;;;15.80;7.57;;;15.30;67.70;;;;;;4982733;28;20810;-45
2022/05/07 06:48:28;;;;;;;6.80;6.20;;;15.40;67.60;;;;;;4981921;28;20523;-44
2022/05/07 06:50:55;;;;;;;8.30;6.90;;;15.50;66.70;;;;;;4962107;28;20995;-45
2022/05/07 06:53:22;;;;;;;11.20;7.43;;;15.70;66.20;;;;;;4983747;28;20998;-45
2022/05/07 06:55:55;;;;;;;6.37;5.63;;;15.80;66.30;;;;;;4968796;28;20985;-45
2022/05/07 06:58:22;;;;;;;7.00;6.07;;;16.00;65.90;;;;;;4980379;28;20500;-45
2022/05/07 07:00:53;;;;;;;4.90;4.50;;;16.10;63.90;;;;;;4982272;28;20469;-45
2022/05/07 07:03:20;;;;;;;5.77;4.73;;;16.30;63.40;;;;;;4972953;28;20558;-45
2022/05/07 07:05:48;;;;;;;8.10;5.00;;;16.40;62.80;;;;;;4977219;28;20469;-45
2022/05/07 07:08:16;;;;;;;6.07;5.47;;;16.60;62.10;;;;;;4972693;28;20473;-45
2022/05/07 07:10:43;;;;;;;7.13;6.10;;;16.70;62.40;;;;;;4975648;28;20470;-45
2022/05/07 07:13:09;;;;;;;5.63;5.13;;;16.90;61.40;;;;;;4981714;28;20552;-45
2022/05/07 07:15:36;;;;;;;6.87;5.00;;;17.00;60.80;;;;;;4982638;28;20594;-45
2022/05/07 07:18:07;;;;;;;4.63;4.20;;;17.20;60.10;;;;;;4978639;28;20464;-45
2022/05/07 07:20:34;;;;;;;5.23;3.73;;;17.40;59.20;;;;;;4974954;28;20477;-44
2022/05/07 07:23:01;;;;;;;4.77;4.37;;;17.50;58.10;;;;;;4976524;28;20490;-44
2022/05/07 07:25:28;;;;;;;8.83;4.17;;;17.70;56.80;;;;;;4982063;28;20455;-44
2022/05/07 07:27:54;;;;;;;5.53;5.03;;;17.90;56.30;;;;;;4979648;28;20471;-44
2022/05/07 07:30:21;;;;;;;5.10;4.60;;;18.10;56.10;;;;;;4980977;28;20558;-44
2022/05/07 07:32:48;;;;;;;5.80;4.20;;;18.30;56.00;;;;;;4974744;28;20469;-44
2022/05/07 07:35:18;;;;;;;4.67;4.17;;;18.50;56.00;;;;;;4979713;28;20461;-44
2022/05/07 07:37:45;;;;;;;4.60;4.20;;;18.60;56.90;;;;;;4978433;28;20840;-44
2022/05/07 07:40:13;;;;;;;8.83;4.50;;;18.80;56.60;;;;;;4979644;28;21023;-44
2022/05/07 07:42:41;;;;;;;8.30;4.80;;;19.00;56.30;;;;;;4979006;28;20476;-45
2022/05/07 07:48:03;;;;;;;5.43;4.27;;;19.30;53.40;;;;;;4974506;28;20539;-46
2022/05/07 07:50:32;;;;;;;4.73;3.47;;;19.50;53.00;;;;;;4977614;28;20499;-45
2022/05/07 07:53:01;;;;;;;6.23;3.80;;;19.60;52.90;;;;;;4971417;28;20461;-45
2022/05/07 07:55:28;;;;;;;4.00;3.70;;;19.80;52.30;;;;;;4973903;28;20976;-45
2022/05/07 07:58:00;;;;;;;4.70;3.90;;;20.00;52.50;;;;;;4960729;28;20564;-45
2022/05/07 08:00:29;;;;;;;4.30;3.90;;;20.10;52.20;;;;;;4976143;28;20916;-44
2022/05/07 08:03:03;;;;;;;3.77;3.20;;;20.30;52.00;;;;;;4974684;28;20987;-45
2022/05/07 08:05:35;;;;;;;8.03;3.50;;;20.50;51.30;;;;;;4971404;28;20465;-45
2022/05/07 08:13:37;;;;;;;4.13;3.73;;;21.00;49.70;;;;;;4971629;28;20564;-45
2022/05/07 08:16:05;;;;;;;3.80;3.50;;;21.20;49.80;;;;;;4956795;28;20976;-45
2022/05/07 08:18:32;;;;;;;5.43;4.37;;;21.30;50.20;;;;;;4977040;28;21308;-45
2022/05/07 08:20:58;;;;;;;4.57;3.60;;;21.50;49.80;;;;;;4957331;28;20560;-45
2022/05/07 08:23:26;;;;;;;4.33;3.93;;;21.60;48.80;;;;;;4970632;28;20464;-46
2022/05/07 08:25:54;;;;;;;4.73;3.83;;;21.70;48.60;;;;;;4980248;28;20497;-45
2022/05/07 08:28:24;;;;;;;5.00;3.63;;;21.90;48.70;;;;;;4968758;28;20472;-45
2022/05/07 08:30:53;;;;;;;4.87;3.43;;;22.00;49.00;;;;;;4972999;28;20580;-45
2022/05/07 08:33:20;;;;;;;3.80;3.23;;;22.10;48.10;;;;;;4957878;28;20607;-45
2022/05/07 08:35:47;;;;;;;5.30;2.80;;;22.20;47.80;;;;;;4979029;28;20550;-45
2022/05/07 08:38:15;;;;;;;6.23;2.77;;;22.40;47.10;;;;;;4958360;28;21110;-45
2022/05/07 08:40:42;;;;;;;3.63;3.33;;;22.50;47.20;;;;;;4969812;28;20457;-45
2022/05/07 08:43:09;;;;;;;3.37;3.07;;;22.60;47.80;;;;;;4972069;28;20458;-45
2022/05/07 08:45:39;;;;;;;3.77;3.37;;;22.70;47.80;;;;;;4974718;28;20477;-45
2022/05/07 08:48:08;;;;;;;3.07;2.80;;;22.90;47.20;;;;;;4974467;28;20975;-45
2022/05/07 08:50:35;;;;;;;2.70;2.40;;;23.00;47.00;;;;;;4970034;28;20900;-45
2022/05/07 08:53:02;;;;;;;4.87;3.07;;;23.10;47.00;;;;;;4975775;28;20471;-46
2022/05/07 08:55:30;;;;;;;4.40;3.03;;;23.40;46.30;;;;;;4956973;28;20492;-45
2022/05/07 08:57:58;;;;;;;3.00;2.60;;;23.60;46.30;;;;;;4980055;28;20468;-46
2022/05/07 09:00:27;;;;;;;7.40;2.10;;;23.80;45.80;;;;;;4974274;28;20565;-46
2022/05/07 09:02:57;;;;;;;2.50;2.30;;;23.90;45.10;;;;;;4975051;28;20455;-45
2022/05/07 09:05:35;;;;;;;3.97;2.80;;;24.20;44.80;;;;;;4972181;28;20457;-45
2022/05/07 09:08:04;;;;;;;3.80;2.83;;;24.30;44.30;;;;;;4973237;28;20997;-46
2022/05/07 09:10:36;;;;;;;8.23;2.83;;;24.40;43.40;;;;;;4969795;28;21072;-45
2022/05/07 09:13:09;;;;;;;3.60;2.60;;;24.60;42.90;;;;;;4980587;28;20491;-46
2022/05/07 09:15:37;;;;;;;2.40;2.20;;;24.80;43.10;;;;;;4973195;28;20473;-46
2022/05/07 09:18:14;;;;;;;4.83;2.80;;;24.90;42.60;;;;;;4975447;28;20967;-46
2022/05/07 09:20:41;;;;;;;2.90;2.17;;;25.10;42.70;;;;;;4974797;28;20495;-46
2022/05/07 09:23:10;;;;;;;3.10;2.03;;;25.30;42.30;;;;;;4975353;28;20496;-46
2022/05/07 09:25:45;;;;;;;2.07;1.70;;;25.50;42.30;;;;;;4980418;28;20515;-46
2022/05/07 09:28:12;;;;;;;102.33;9.00;;;25.70;41.60;;;;;;4984509;28;20488;-45
2022/05/07 09:30:42;;;;;;;5.07;2.30;;;25.90;41.40;;;;;;4981814;28;20473;-45
2022/05/07 09:33:09;;;;;;;3.80;2.10;;;26.00;39.30;;;;;;4952788;28;21127;-45
2022/05/07 09:35:49;;;;;;;4.60;1.97;;;26.30;38.80;;;;;;4975376;28;20484;-45
2022/05/07 09:38:24;;;;;;;3.53;1.67;;;26.50;39.10;;;;;;4975369;28;20472;-46
2022/05/07 09:40:51;;;;;;;3.00;1.60;;;26.70;38.00;;;;;;4973039;28;20453;-45
2022/05/07 09:43:18;;;;;;;1.93;1.57;;;26.90;36.10;;;;;;4974264;28;20453;-46
2022/05/07 09:45:46;;;;;;;3.00;2.03;;;27.10;36.00;;;;;;4974181;28;20489;-45
2022/05/07 09:48:12;;;;;;;2.03;1.80;;;27.20;34.80;;;;;;4980987;28;20971;-46
2022/05/07 09:58:55;;;;;;;3.77;2.10;;;28.00;33.70;;;;;;4976111;28;20485;-46
2022/05/07 10:01:29;;;;;;;2.53;1.88;;;28.20;33.90;;;;;;4964600;28;20587;-46
2022/05/07 10:04:08;;;;;;;3.23;1.80;;;28.20;33.90;;;;;;4974371;28;20900;-46
2022/05/07 10:06:34;;;;;;;4.43;2.10;;;28.40;33.90;;;;;;4983408;28;20675;-46
2022/05/07 10:09:04;;;;;;;5.87;2.00;;;28.50;33.30;;;;;;4981230;28;20804;-46
2022/05/07 10:11:32;;;;;;;4.20;2.63;;;28.40;33.30;;;;;;4980800;28;20213;-46
2022/05/07 10:13:59;;;;;;;5.17;2.30;;;28.50;33.90;;;;;;4983873;28;20296;-46
2022/05/07 10:16:30;;;;;;;2.45;2.10;;;28.50;33.90;;;;;;4976030;28;20216;-46
2022/05/07 10:19:11;;;;;;;2.47;2.00;;;28.50;34.30;;;;;;4976823;28;20233;-46
2022/05/07 10:21:38;;;;;;;5.15;2.25;;;28.50;34.50;;;;;;4977380;28;21425;-46
2022/05/07 10:24:05;;;;;;;3.10;2.00;;;28.30;33.60;;;;;;4979505;28;20209;-46
2022/05/07 10:26:39;;;;;;;3.40;1.90;;;28.30;33.60;;;;;;4983258;28;20214;-46
2022/05/07 10:29:07;;;;;;;4.13;1.90;;;28.20;33.90;;;;;;4985234;28;20260;-46
2022/05/07 10:31:46;;;;;;;2.00;1.80;;;28.10;34.00;;;;;;4981490;28;20272;-46
2022/05/07 10:34:26;;;;;;;3.30;2.20;;;27.90;34.20;;;;;;4982295;28;20216;-46
2022/05/07 10:37:04;;;;;;;2.73;2.43;;;27.70;34.40;;;;;;4982343;28;20309;-46
2022/05/07 10:39:31;;;;;;;2.87;2.40;;;27.50;34.40;;;;;;4981461;28;20273;-46
2022/05/07 10:42:02;;;;;;;6.40;3.20;;;27.20;35.00;;;;;;4982829;28;20197;-46
2022/05/07 10:44:34;;;;;;;4.43;3.27;;;27.00;34.60;;;;;;4982251;28;20456;-46
2022/05/07 10:47:15;;;;;;;7.57;2.50;;;26.70;34.50;;;;;;4946722;28;20460;-46
2022/05/07 10:50:06;;;;;;;6.57;2.40;;;26.50;35.00;;;;;;4974333;28;20465;-46
2022/05/07 10:52:34;;;;;;;4.40;2.47;;;26.40;35.60;;;;;;4977422;28;20486;-46
2022/05/07 10:55:04;;;;;;;3.50;2.33;;;26.30;35.60;;;;;;4979039;28;20469;-46
2022/05/07 10:57:41;;;;;;;3.50;2.47;;;26.30;37.30;;;;;;4984910;28;20502;-46
2022/05/07 11:00:13;;;;;;;5.70;2.07;;;26.20;36.50;;;;;;4981015;28;20488;-46
2022/05/07 11:02:40;;;;;;;6.17;3.30;;;26.00;36.20;;;;;;4975957;28;20504;-46
2022/05/07 11:05:07;;;;;;;2.37;2.17;;;25.80;36.90;;;;;;4980453;28;20469;-46
2022/05/07 11:07:35;;;;;;;5.87;2.50;;;25.50;37.00;;;;;;4980360;28;20458;-45
2022/05/07 11:10:10;;;;;;;3.73;2.37;;;25.30;36.90;;;;;;4982688;28;20543;-46
2022/05/07 11:12:39;;;;;;;3.60;2.70;;;25.20;38.10;;;;;;4966850;28;20473;-45
2022/05/07 11:15:09;;;;;;;3.27;2.90;;;25.10;38.20;;;;;;4983431;28;20457;-46
2022/05/07 11:17:40;;;;;;;2.63;2.17;;;25.00;38.30;;;;;;4985753;28;20495;-46
2022/05/07 11:20:11;;;;;;;2.70;2.03;;;24.90;39.40;;;;;;4989257;28;20511;-46
2022/05/07 11:22:39;;;;;;;2.30;2.10;;;24.70;39.10;;;;;;4977805;28;20553;-46
2022/05/07 11:25:08;;;;;;;3.87;2.80;;;24.50;39.60;;;;;;4963718;28;20464;-46
2022/05/07 11:27:35;;;;;;;4.47;3.00;;;24.40;39.00;;;;;;4976749;28;20500;-46
2022/05/07 11:30:04;;;;;;;3.10;2.70;;;24.30;38.70;;;;;;4981874;28;20625;-46
2022/05/07 11:32:40;;;;;;;2.57;2.37;;;24.20;39.60;;;;;;4977218;28;20513;-46
2022/05/07 11:35:07;;;;;;;5.70;3.03;;;24.10;38.70;;;;;;4981987;28;20466;-46
2022/05/07 11:37:45;;;;;;;2.70;2.50;;;24.10;39.20;;;;;;4987180;28;20497;-46
2022/05/07 11:40:13;;;;;;;6.10;2.80;;;24.00;39.60;;;;;;4978487;28;20796;-46
2022/05/07 11:42:43;;;;;;;2.47;2.27;;;24.00;39.80;;;;;;4979855;28;21008;-46
2022/05/07 11:45:29;;;;;;;3.10;2.80;;;24.00;39.30;;;;;;4976257;28;20502;-46
2022/05/07 11:48:14;;;;;;;3.37;3.07;;;24.00;39.90;;;;;;4963499;28;20967;-46
2022/05/07 11:50:51;;;;;;;4.07;3.20;;;24.00;39.80;;;;;;4983233;28;20468;-46
2022/05/07 11:53:22;;;;;;;2.90;2.60;;;24.00;40.00;;;;;;4976899;28;20830;-46
2022/05/07 11:55:50;;;;;;;4.70;2.30;;;24.00;41.40;;;;;;4976355;28;20504;-46
2022/05/07 11:58:23;;;;;;;5.27;2.70;;;24.00;40.70;;;;;;4978050;28;20452;-45
2022/05/07 12:00:53;;;;;;;3.53;3.23;;;24.00;40.30;;;;;;4970363;28;20496;-46
2022/05/07 12:03:24;;;;;;;2.80;2.50;;;23.90;40.40;;;;;;4971890;28;20473;-46
2022/05/07 12:05:52;;;;;;;6.90;3.37;;;23.80;40.50;;;;;;4975535;28;21192;-46
2022/05/07 12:08:21;;;;;;;3.83;3.30;;;23.80;40.20;;;;;;4980243;28;20470;-46
2022/05/07 12:10:49;;;;;;;3.00;2.70;;;23.70;40.00;;;;;;4974780;28;20935;-46
2022/05/07 12:13:18;;;;;;;3.93;3.53;;;23.70;40.30;;;;;;4976796;28;20464;-46
2022/05/07 12:18:41;;;;;;;3.77;2.70;;;23.70;41.20;;;;;;4979911;28;21011;-46
2022/05/07 12:21:08;;;;;;;7.37;2.73;;;23.70;41.30;;;;;;4978846;28;20498;-46
2022/05/07 12:31:55;;;;;;;3.57;2.90;;;23.60;41.50;;;;;;4977596;28;20476;-46
2022/05/07 12:34:29;;;;;;;2.90;2.47;;;23.60;41.30;;;;;;4981435;28;20500;-46
2022/05/07 12:36:55;;;;;;;3.97;3.20;;;23.60;40.90;;;;;;4975832;28;20837;-46
2022/05/07 12:39:22;;;;;;;3.80;3.43;;;23.60;41.90;;;;;;4978435;28;20985;-46
2022/05/07 12:41:49;;;;;;;7.90;3.23;;;23.60;41.70;;;;;;4972091;28;20458;-46
2022/05/07 12:44:15;;;;;;;7.00;4.70;;;23.60;42.00;;;;;;4977380;28;20555;-46
2022/05/07 12:46:42;;;;;;;4.63;3.43;;;23.70;42.20;;;;;;4977244;28;20473;-46
2022/05/07 12:49:09;;;;;;;3.10;2.80;;;23.60;40.60;;;;;;4975740;28;20459;-46
2022/05/07 12:51:36;;;;;;;2.73;2.47;;;23.60;41.00;;;;;;4976467;28;20476;-46
2022/05/07 12:54:03;;;;;;;6.00;2.93;;;23.60;40.90;;;;;;4984441;28;21224;-46
2022/05/07 12:56:30;;;;;;;9.83;3.10;;;23.60;40.40;;;;;;4973897;28;21128;-46
2022/05/07 12:58:57;;;;;;;5.60;2.93;;;23.60;40.90;;;;;;4976824;28;20563;-46
2022/05/07 13:01:24;;;;;;;4.20;2.60;;;23.60;40.60;;;;;;4975812;28;20493;-46
2022/05/07 13:03:51;;;;;;;3.03;2.73;;;23.70;42.50;;;;;;4973328;28;20463;-46
2022/05/07 13:06:18;;;;;;;3.57;3.27;;;23.70;42.50;;;;;;4976685;28;20485;-46
2022/05/07 13:08:50;;;;;;;3.87;3.00;;;23.60;42.10;;;;;;4975097;28;20557;-45
2022/05/07 13:11:17;;;;;;;3.40;2.60;;;23.60;42.80;;;;;;4975296;28;20471;-46
2022/05/07 13:13:44;;;;;;;5.10;3.60;;;23.50;41.30;;;;;;4977410;28;20513;-46
2022/05/07 13:16:11;;;;;;;2.80;2.60;;;23.50;40.90;;;;;;4970806;28;20861;-46
2022/05/07 13:18:38;;;;;;;5.97;3.13;;;23.50;40.90;;;;;;4974126;28;20747;-46
2022/05/07 13:21:06;;;;;;;5.20;2.73;;;23.60;40.90;;;;;;4971908;28;20527;-46
2022/05/07 13:23:33;;;;;;;3.30;2.30;;;23.70;43.10;;;;;;4971827;28;20475;-45
2022/05/07 13:26:00;;;;;;;5.30;2.73;;;23.80;41.30;;;;;;4960009;28;20461;-46
2022/05/07 13:28:27;;;;;;;4.00;3.00;;;23.80;41.90;;;;;;4977207;28;20563;-46
2022/05/07 13:30:56;;;;;;;4.33;2.37;;;23.80;41.30;;;;;;4974034;28;20865;-46
2022/05/07 13:33:26;;;;;;;3.57;2.73;;;23.90;41.80;;;;;;4975196;28;20460;-47
2022/05/07 13:35:55;;;;;;;6.07;3.10;;;23.90;40.60;;;;;;4957031;28;20543;-47